Nachtflug: NVFR

Berechtigung

Zur Durchführung von Überlandflügen bei Nacht.

 

Nachtflug

 

 

 

 

 

 

 

 

 

Voraussetzungen

Die Voraussetzung für diese Qualifikation ist der LAPL (A) oder PPL (A)

Achtung: für LAPL Inhaber, ist die Instrumentenflugausbildung der PPL (A) erforderlich

Theoretische Ausbildung

zwei Stunden Theorieausbildung

Praktische Ausbildung

Zur praktischen Ausbildung gehören 5 Flugstunden bei Nacht, davon mindestens 3 Stunden Ausbildung mit einem Lehrberechtigten, davon mindestens eine Stunde Überland-Navigation mit mindestens einem Überlandflug mit Fluglehrer von mindestens 50 km und 5 Alleinstarts und 5 Alleinlandungen bis zum vollständigen Stillstand.

Prüfung

Eine Prüfung ist nicht erforderlich. Mit Abschluss der erforderlichen Flugausbildung senden wir das Antragsformular an die zuständige Luftfahrtbehörde. Sie bekommen dann eine neue Lizenz mit der Eintragung NVFR.

 

Flugwetter Augsburg

[source: ADDS]
METAR
EDMA 171450Z 28007KT 9999 -SHRA BKN024 OVC034 08/07 Q1019 =
TAF EDMA 171400Z 1715/1724 28010KT 9999 SCT010 BKN020 TEMPO 1715/1721 BKN012 PROB30 TEMPO 1715/1721 RA
TAF
TAF EDMA 171400Z 1715/1724 28010KT 9999 SCT010 BKN020 TEMPO 1715/1721 BKN012 PROB30 TEMPO 1715/1721 RA =
Cookies erleichtern die Bereitstellung unserer Dienste. Mit der Nutzung unserer Dienste erklären Sie sich damit einverstanden, dass wir Cookies verwenden.
Weitere Informationen Ok